Time;durP1;ratioP1;P1;durP2;ratioP2;P2;SDS_P1;SDS_P2;PMS_P1;PMS_P2;Temp;Humidity;BMP_temperature;BMP_pressure;BME280_temperature;BME280_humidity;BME280_pressure;Samples;Min_cycle;Max_cycle;Signal;HPM_P1;HPM_P2
2022/08/17 00:00:23;;;;;;;32.03;28.83;;;20.40;99.90;;;;;;5035264;28;20203;-80
2022/08/17 00:03:02;;;;;;;35.95;32.20;;;20.30;99.90;;;;;;5042018;28;20538;-81
2022/08/17 00:05:33;;;;;;;42.88;38.40;;;20.30;99.90;;;;;;5054433;28;20244;-81
2022/08/17 00:08:00;;;;;;;36.85;32.95;;;20.30;99.90;;;;;;5054125;28;20325;-81
2022/08/17 00:10:27;;;;;;;39.60;35.55;;;20.40;99.90;;;;;;5053784;28;20233;-80
2022/08/17 00:12:55;;;;;;;35.65;31.95;;;20.30;99.90;;;;;;5053607;28;20218;-79
2022/08/17 00:15:23;;;;;;;35.35;31.85;;;20.30;99.90;;;;;;5033899;28;20521;-79
2022/08/17 00:17:51;;;;;;;35.72;32.17;;;20.30;99.90;;;;;;5033828;28;20205;-82
2022/08/17 00:20:19;;;;;;;37.13;33.42;;;20.30;99.90;;;;;;5034044;28;20236;-79
2022/08/17 00:22:46;;;;;;;39.08;34.97;;;20.30;99.90;;;;;;5034322;28;20203;-80
2022/08/17 00:25:19;;;;;;;32.15;28.85;;;20.30;99.90;;;;;;5033271;28;20264;-81
2022/08/17 00:27:46;;;;;;;34.45;30.80;;;20.30;99.90;;;;;;5034542;28;20191;-81
2022/08/17 00:30:15;;;;;;;40.58;36.38;;;20.30;99.90;;;;;;5034193;28;20618;-79
2022/08/17 00:32:44;;;;;;;34.05;30.65;;;20.30;99.90;;;;;;5053469;28;20499;-79
2022/08/17 00:35:14;;;;;;;33.95;30.52;;;20.30;99.90;;;;;;5053324;28;20222;-79
2022/08/17 00:37:42;;;;;;;39.33;35.25;;;20.30;99.90;;;;;;5052824;28;20186;-79
2022/08/17 00:40:11;;;;;;;34.83;31.30;;;20.40;99.90;;;;;;5050353;28;20293;-79
2022/08/17 00:42:38;;;;;;;36.22;32.38;;;20.30;99.90;;;;;;5033685;28;20202;-81
2022/08/17 00:45:07;;;;;;;36.15;32.35;;;20.40;99.90;;;;;;5033096;28;20205;-81
2022/08/17 00:47:36;;;;;;;37.55;33.60;;;20.40;99.90;;;;;;5042598;28;20284;-80
2022/08/17 00:50:04;;;;;;;42.22;38.00;;;20.30;99.90;;;;;;5053269;28;20213;-81
2022/08/17 00:52:36;;;;;;;41.78;37.58;;;20.30;99.90;;;;;;5053197;28;20190;-82
2022/08/17 00:55:06;;;;;;;44.90;40.08;;;20.30;99.90;;;;;;5053699;28;20198;-80
2022/08/17 00:57:36;;;;;;;38.22;34.08;;;20.40;99.90;;;;;;5037045;28;20504;-82
2022/08/17 01:00:08;;;;;;;44.10;39.65;;;20.30;99.90;;;;;;5032595;28;20191;-80
2022/08/17 01:02:41;;;;;;;34.75;31.08;;;20.30;99.90;;;;;;5036917;28;20229;-79
2022/08/17 01:05:14;;;;;;;36.88;33.22;;;20.30;99.90;;;;;;5049809;28;20229;-80
2022/08/17 01:07:42;;;;;;;41.60;37.35;;;20.30;99.90;;;;;;5052874;28;20277;-80
2022/08/17 01:10:12;;;;;;;34.53;30.95;;;20.30;99.90;;;;;;5045025;28;20245;-78
2022/08/17 01:12:39;;;;;;;36.65;32.50;;;20.30;99.90;;;;;;5032094;28;20571;-79
2022/08/17 01:15:07;;;;;;;40.28;36.00;;;20.30;99.90;;;;;;5033393;28;20304;-79
2022/08/17 01:17:36;;;;;;;38.92;35.10;;;20.20;99.90;;;;;;5033144;28;20237;-79
2022/08/17 01:20:04;;;;;;;36.05;32.22;;;20.20;99.90;;;;;;5031997;28;20485;-80
2022/08/17 01:22:32;;;;;;;40.05;35.92;;;20.20;99.90;;;;;;5032824;28;20474;-79
2022/08/17 01:25:01;;;;;;;31.20;27.95;;;20.20;99.90;;;;;;5032829;28;20289;-80
2022/08/17 01:27:29;;;;;;;37.13;33.25;;;20.10;99.90;;;;;;5031947;28;20198;-78
2022/08/17 01:30:01;;;;;;;37.50;33.75;;;20.10;99.90;;;;;;5032599;28;20533;-77
2022/08/17 01:32:29;;;;;;;35.03;31.52;;;20.10;99.90;;;;;;5032447;28;20233;-77
2022/08/17 01:34:58;;;;;;;35.53;31.90;;;20.00;99.90;;;;;;5031692;28;20241;-79
2022/08/17 01:37:29;;;;;;;40.33;36.00;;;20.00;99.90;;;;;;5032934;28;20206;-78
2022/08/17 01:40:02;;;;;;;43.95;39.42;;;20.00;99.90;;;;;;5032448;28;20222;-78
2022/08/17 01:42:34;;;;;;;34.45;30.92;;;20.00;99.90;;;;;;5031711;28;20206;-78
2022/08/17 01:45:07;;;;;;;36.05;32.38;;;19.90;99.90;;;;;;5032264;28;20285;-78
2022/08/17 01:47:36;;;;;;;39.13;34.92;;;19.90;99.90;;;;;;5031804;28;20605;-79
2022/08/17 01:50:07;;;;;;;37.88;33.90;;;19.90;99.90;;;;;;5032167;28;20256;-77
2022/08/17 01:52:35;;;;;;;38.72;34.72;;;19.90;99.90;;;;;;5032484;28;20191;-79
2022/08/17 01:55:05;;;;;;;37.00;33.28;;;19.90;99.90;;;;;;5031643;28;20214;-79
2022/08/17 01:57:31;;;;;;;39.45;35.35;;;19.90;99.90;;;;;;5045640;28;20503;-79
2022/08/17 01:59:58;;;;;;;38.58;34.47;;;19.90;99.90;;;;;;5051746;28;20202;-79
2022/08/17 02:02:26;;;;;;;44.67;40.08;;;19.90;99.90;;;;;;5051365;28;20198;-78
2022/08/17 02:04:52;;;;;;;39.30;35.20;;;19.90;99.90;;;;;;5052347;28;20499;-79
2022/08/17 02:07:19;;;;;;;34.35;29.90;;;20.00;99.90;;;;;;5051793;28;20206;-78
2022/08/17 02:09:46;;;;;;;33.78;30.30;;;20.00;99.90;;;;;;5051264;28;20605;-81
2022/08/17 02:12:15;;;;;;;38.03;34.13;;;20.00;99.90;;;;;;5052212;28;20352;-80
2022/08/17 02:14:42;;;;;;;36.17;32.55;;;20.00;99.90;;;;;;5051118;28;20695;-78
2022/08/17 02:17:09;;;;;;;38.95;34.85;;;20.00;99.90;;;;;;5051363;28;20205;-79
2022/08/17 02:19:36;;;;;;;37.13;33.22;;;20.00;99.90;;;;;;5051880;28;20264;-77
2022/08/17 02:22:03;;;;;;;38.38;34.42;;;20.10;99.90;;;;;;5051763;28;20687;-80
2022/08/17 02:24:34;;;;;;;36.97;33.08;;;20.10;99.90;;;;;;5038896;28;20254;-79
2022/08/17 02:27:01;;;;;;;44.38;39.67;;;20.10;99.90;;;;;;5032023;28;20279;-80
2022/08/17 02:29:29;;;;;;;39.92;35.67;;;20.10;99.90;;;;;;5046403;28;20650;-80
2022/08/17 02:31:57;;;;;;;40.63;36.42;;;20.20;99.90;;;;;;5052116;28;20285;-81
2022/08/17 02:34:24;;;;;;;36.17;32.40;;;20.20;99.90;;;;;;5051957;28;20228;-80
2022/08/17 02:36:52;;;;;;;38.53;34.47;;;20.20;99.90;;;;;;5051647;28;20212;-81
2022/08/17 02:39:21;;;;;;;33.95;30.45;;;20.20;99.90;;;;;;5035021;28;20595;-79
2022/08/17 02:41:49;;;;;;;35.60;31.92;;;20.20;99.90;;;;;;5032596;28;20199;-82
2022/08/17 02:44:16;;;;;;;35.40;31.88;;;20.20;99.90;;;;;;5032605;28;20746;-83
2022/08/17 02:46:44;;;;;;;41.80;37.50;;;20.20;99.90;;;;;;5033449;28;20202;-82
2022/08/17 02:49:11;;;;;;;45.10;40.50;;;20.20;99.90;;;;;;5032542;28;20206;-82
2022/08/17 02:51:37;;;;;;;51.90;46.70;;;20.30;99.90;;;;;;5034388;28;20202;-83
2022/08/17 02:54:04;;;;;;;56.55;49.78;;;20.40;99.90;;;;;;5052232;28;20228;-83
2022/08/17 02:56:31;;;;;;;67.72;52.97;;;20.40;99.90;;;;;;5053433;28;20289;-84
2022/08/17 02:58:58;;;;;;;73.60;53.13;;;20.50;99.90;;;;;;5052391;28;20198;-78
2022/08/17 03:01:26;;;;;;;63.05;43.33;;;20.50;99.90;;;;;;5032765;28;20202;-79
2022/08/17 03:03:55;;;;;;;61.35;39.75;;;20.60;99.90;;;;;;5031329;28;20187;-77
2022/08/17 03:06:23;;;;;;;49.10;32.60;;;20.60;99.90;;;;;;5030729;28;20206;-79
2022/08/17 03:08:50;;;;;;;57.63;39.45;;;20.50;99.90;;;;;;5031594;28;20202;-76
2022/08/17 03:11:18;;;;;;;55.60;38.83;;;20.40;99.90;;;;;;5033311;28;20202;-83
2022/08/17 03:13:45;;;;;;;49.67;38.60;;;20.30;99.90;;;;;;5052437;28;20309;-86
2022/08/17 03:16:14;;;;;;;47.00;37.53;;;20.30;99.90;;;;;;5053119;28;20314;-83
2022/08/17 03:18:41;;;;;;;45.65;37.63;;;20.20;99.90;;;;;;5036463;28;20654;-84
2022/08/17 03:21:09;;;;;;;44.67;35.53;;;20.20;99.90;;;;;;5035764;28;20663;-83
2022/08/17 03:23:40;;;;;;;48.72;33.85;;;20.10;99.90;;;;;;5036408;28;20492;-82
2022/08/17 03:26:09;;;;;;;49.70;30.38;;;20.10;99.90;;;;;;5053527;28;20229;-81
2022/08/17 03:28:36;;;;;;;41.90;24.55;;;20.10;99.90;;;;;;5049580;28;20206;-80
2022/08/17 03:31:03;;;;;;;42.55;26.02;;;20.10;99.90;;;;;;5035292;28;20668;-84
2022/08/17 03:33:30;;;;;;;39.85;22.60;;;20.00;99.90;;;;;;5035049;28;20206;-80
2022/08/17 03:35:58;;;;;;;36.40;25.05;;;20.00;99.90;;;;;;5035888;28;20665;-78
2022/08/17 03:38:26;;;;;;;35.65;23.88;;;19.90;99.90;;;;;;5035280;28;20199;-82
2022/08/17 03:40:53;;;;;;;43.70;25.08;;;19.90;99.90;;;;;;5035361;28;20510;-86
2022/08/17 03:43:21;;;;;;;28.55;22.33;;;19.80;99.90;;;;;;5035529;28;20234;-80
2022/08/17 03:57:03;;;;;;;26.95;19.52;;;19.70;99.90;;;;;;4979845;28;20883;-78
2022/08/17 03:59:30;;;;;;;20.23;17.55;;;19.60;99.90;;;;;;5054335;28;20198;-81
2022/08/17 04:02:00;;;;;;;24.85;20.27;;;19.60;99.90;;;;;;5053838;28;20327;-80
2022/08/17 04:04:27;;;;;;;26.13;20.38;;;19.60;99.90;;;;;;5054981;28;20285;-79
2022/08/17 04:06:54;;;;;;;29.15;21.00;;;19.60;99.90;;;;;;5054298;28;20205;-82
2022/08/17 04:09:22;;;;;;;24.70;20.70;;;19.60;99.90;;;;;;5053706;28;20209;-82
2022/08/17 04:11:49;;;;;;;26.35;21.27;;;19.50;99.90;;;;;;5054348;28;20277;-80
2022/08/17 04:14:16;;;;;;;32.03;24.95;;;19.50;99.90;;;;;;5054142;28;20218;-80
2022/08/17 04:16:42;;;;;;;26.50;22.27;;;19.50;99.90;;;;;;5052855;28;20606;-79
2022/08/17 04:19:09;;;;;;;25.10;20.42;;;19.50;99.90;;;;;;5053369;28;20225;-80
2022/08/17 04:21:36;;;;;;;24.50;20.00;;;19.50;99.90;;;;;;5053727;28;20206;-81
2022/08/17 04:24:04;;;;;;;30.98;24.25;;;19.50;99.90;;;;;;5053047;28;20198;-79
2022/08/17 04:26:33;;;;;;;29.15;24.17;;;19.50;99.90;;;;;;5053629;28;20205;-80
2022/08/17 04:29:00;;;;;;;29.17;24.02;;;19.50;99.90;;;;;;5053336;28;20202;-80
2022/08/17 04:31:28;;;;;;;28.58;25.50;;;19.50;99.90;;;;;;5053635;28;20282;-80
2022/08/17 04:33:55;;;;;;;33.83;26.60;;;19.40;99.90;;;;;;5052954;28;20214;-79
2022/08/17 04:36:22;;;;;;;27.80;24.90;;;19.40;99.90;;;;;;5053036;28;20305;-81
2022/08/17 04:38:49;;;;;;;33.67;28.85;;;19.40;99.90;;;;;;5053534;28;20725;-79
2022/08/17 04:44:03;;;;;;;33.97;30.30;;;19.40;99.90;;;;;;5053306;28;20184;-79
2022/08/17 04:46:32;;;;;;;33.40;30.23;;;19.40;99.90;;;;;;5052951;28;20202;-81
2022/08/17 04:49:01;;;;;;;31.80;28.33;;;19.40;99.90;;;;;;5053451;28;20216;-79
2022/08/17 04:51:30;;;;;;;33.92;30.58;;;19.30;99.90;;;;;;5045156;28;20498;-81
2022/08/17 04:53:59;;;;;;;31.98;28.95;;;19.30;99.90;;;;;;5034195;28;20480;-77
2022/08/17 04:56:27;;;;;;;31.40;28.30;;;19.30;99.90;;;;;;5052703;28;20212;-79
2022/08/17 04:58:56;;;;;;;26.65;24.10;;;19.30;99.90;;;;;;5052289;28;20216;-78
2022/08/17 05:01:26;;;;;;;30.40;27.60;;;19.30;99.90;;;;;;5053657;28;20197;-82
2022/08/17 05:03:55;;;;;;;29.67;26.75;;;19.30;99.90;;;;;;5052723;28;20217;-79
2022/08/17 05:06:22;;;;;;;32.00;28.90;;;19.30;99.90;;;;;;5050137;28;20275;-80
2022/08/17 05:08:49;;;;;;;33.17;29.77;;;19.30;99.90;;;;;;5033537;28;20203;-80
2022/08/17 05:11:16;;;;;;;30.70;27.65;;;19.30;99.90;;;;;;5032622;28;20506;-82
2022/08/17 05:13:43;;;;;;;31.90;28.77;;;19.30;99.90;;;;;;5034042;28;20734;-79
2022/08/17 05:16:11;;;;;;;34.45;30.70;;;19.30;99.90;;;;;;5032607;28;20218;-80
2022/08/17 05:18:39;;;;;;;31.45;28.13;;;19.30;99.90;;;;;;5032587;28;20244;-79
2022/08/17 05:21:06;;;;;;;34.47;30.52;;;19.30;99.90;;;;;;5032980;28;20281;-80
2022/08/17 05:23:35;;;;;;;38.85;30.92;;;19.30;99.90;;;;;;5033344;28;20194;-83
2022/08/17 05:26:03;;;;;;;34.35;30.65;;;19.30;99.90;;;;;;5051527;28;20202;-79
2022/08/17 05:28:30;;;;;;;38.17;33.22;;;19.40;99.90;;;;;;5052629;28;20313;-79
2022/08/17 05:31:00;;;;;;;34.13;29.73;;;19.40;99.90;;;;;;5052392;28;20727;-80
2022/08/17 05:33:29;;;;;;;34.78;30.02;;;19.40;99.90;;;;;;5044081;28;20535;-80
2022/08/17 05:35:59;;;;;;;37.08;32.53;;;19.40;99.90;;;;;;5032044;28;20222;-79
2022/08/17 05:38:28;;;;;;;36.47;31.88;;;19.40;99.90;;;;;;5044886;28;20220;-82
2022/08/17 05:40:55;;;;;;;34.67;28.17;;;19.40;99.90;;;;;;5051548;28;20198;-82
2022/08/17 05:43:25;;;;;;;34.20;30.17;;;19.40;99.90;;;;;;5052336;28;20208;-80
2022/08/17 05:46:12;;;;;;;29.75;26.35;;;19.40;99.90;;;;;;5040212;28;20221;-82
2022/08/17 05:48:43;;;;;;;28.45;25.42;;;19.40;99.90;;;;;;5032015;28;20199;-78
2022/08/17 05:51:31;;;;;;;25.10;22.63;;;19.40;99.90;;;;;;5033124;28;20222;-80
2022/08/17 05:54:08;;;;;;;22.38;20.13;;;19.40;99.90;;;;;;5032028;28;20197;-76
2022/08/17 05:56:54;;;;;;;22.92;20.65;;;19.30;99.90;;;;;;5032632;28;20198;-79
2022/08/17 05:59:29;;;;;;;17.63;16.02;;;19.30;99.90;;;;;;5032121;28;20194;-79
2022/08/17 06:02:02;;;;;;;19.08;17.17;;;19.20;99.90;;;;;;5031975;28;20195;-78
2022/08/17 06:04:43;;;;;;;19.40;17.65;;;19.20;99.90;;;;;;5033232;28;20453;-79
2022/08/17 06:07:18;;;;;;;16.67;15.13;;;19.20;99.90;;;;;;5033859;28;20252;-80
2022/08/17 06:09:51;;;;;;;18.05;16.17;;;19.20;99.90;;;;;;5031688;28;20198;-81
2022/08/17 06:12:39;;;;;;;17.67;16.00;;;19.20;99.90;;;;;;5032939;28;20282;-80
2022/08/17 06:15:23;;;;;;;13.77;12.38;;;19.20;99.90;;;;;;5031398;28;20296;-80
2022/08/17 06:17:55;;;;;;;11.82;10.73;;;19.10;99.90;;;;;;5031957;28;20210;-79
2022/08/17 06:20:24;;;;;;;11.50;10.40;;;19.10;99.90;;;;;;5031491;28;20191;-80
2022/08/17 06:22:59;;;;;;;9.85;8.90;;;19.10;99.90;;;;;;5031393;28;20286;-80
2022/08/17 06:25:33;;;;;;;10.23;9.23;;;19.00;99.90;;;;;;5031585;28;20202;-79
2022/08/17 06:28:04;;;;;;;9.15;8.35;;;19.10;99.90;;;;;;5040034;28;20210;-79
2022/08/17 06:30:44;;;;;;;8.75;8.05;;;19.10;99.90;;;;;;5050996;28;20204;-80
2022/08/17 06:33:20;;;;;;;9.75;8.75;;;19.00;99.90;;;;;;5051179;28;20230;-79
2022/08/17 06:36:01;;;;;;;9.77;8.98;;;19.10;99.90;;;;;;5047866;28;20228;-79
2022/08/17 06:38:40;;;;;;;10.55;9.15;;;19.10;99.90;;;;;;5051243;28;20527;-81
2022/08/17 06:41:15;;;;;;;9.80;8.98;;;19.00;99.90;;;;;;5051726;28;20194;-80
2022/08/17 06:43:52;;;;;;;10.55;9.40;;;19.00;99.90;;;;;;5045360;28;20213;-81
2022/08/17 06:46:24;;;;;;;10.18;9.27;;;19.00;99.90;;;;;;5032660;28;20182;-79
2022/08/17 06:49:11;;;;;;;9.07;8.27;;;19.00;99.90;;;;;;5035451;28;20238;-80
2022/08/17 06:51:40;;;;;;;10.70;9.60;;;19.00;99.90;;;;;;5036043;28;20207;-81
2022/08/17 06:54:13;;;;;;;9.80;8.90;;;19.00;99.90;;;;;;5055684;28;20209;-79
2022/08/17 06:56:45;;;;;;;10.75;9.70;;;19.10;99.90;;;;;;5055153;28;20225;-80
2022/08/17 06:59:18;;;;;;;11.38;10.27;;;19.10;99.90;;;;;;5055142;28;20694;-79
2022/08/17 07:01:48;;;;;;;10.98;9.55;;;19.10;99.90;;;;;;5051573;28;20617;-80
2022/08/17 07:04:20;;;;;;;10.57;9.57;;;19.10;99.90;;;;;;5049635;28;20210;-81
2022/08/17 07:06:51;;;;;;;10.13;8.82;;;19.10;99.90;;;;;;5064457;28;20294;-81
2022/08/17 07:09:27;;;;;;;10.18;9.18;;;19.10;99.90;;;;;;5055525;28;20284;-82
2022/08/17 07:12:01;;;;;;;10.55;9.45;;;19.10;99.90;;;;;;5048476;28;20301;-81
2022/08/17 07:14:36;;;;;;;10.20;9.20;;;19.10;99.90;;;;;;5055093;28;20209;-82
2022/08/17 07:17:07;;;;;;;9.68;8.88;;;19.10;99.90;;;;;;5039944;28;20216;-81
2022/08/17 07:19:39;;;;;;;10.55;9.55;;;19.10;99.90;;;;;;5048722;28;20242;-80
2022/08/17 07:22:17;;;;;;;9.90;9.00;;;19.00;99.90;;;;;;5044417;28;20224;-81
2022/08/17 07:24:56;;;;;;;12.18;11.07;;;19.00;99.90;;;;;;5050026;28;20762;-82
2022/08/17 07:27:26;;;;;;;13.00;11.55;;;19.00;99.90;;;;;;5055592;28;20287;-82
2022/08/17 07:29:56;;;;;;;12.55;11.45;;;19.00;99.90;;;;;;5055372;28;20199;-82
2022/08/17 07:32:30;;;;;;;11.95;10.75;;;19.00;99.90;;;;;;5055310;28;20477;-82
2022/08/17 07:35:13;;;;;;;14.32;12.23;;;19.00;99.90;;;;;;5054468;28;20221;-82
2022/08/17 07:37:43;;;;;;;14.30;12.70;;;19.00;99.90;;;;;;5035923;28;20587;-84
2022/08/17 07:40:30;;;;;;;12.38;11.18;;;19.00;99.90;;;;;;5036303;28;20306;-82
2022/08/17 07:43:13;;;;;;;13.27;11.98;;;19.00;99.90;;;;;;5035336;28;20257;-80
2022/08/17 07:48:41;;;;;;;11.60;10.60;;;19.10;99.90;;;;;;5035090;28;20633;-80
2022/08/17 07:51:30;;;;;;;11.75;10.65;;;19.10;99.90;;;;;;5033916;28;20206;-79
2022/08/17 07:54:00;;;;;;;14.73;13.23;;;19.10;99.90;;;;;;5048373;28;20276;-81
2022/08/17 07:56:42;;;;;;;15.13;13.73;;;19.10;99.90;;;;;;5067104;28;20225;-81
2022/08/17 07:59:13;;;;;;;14.23;12.82;;;19.10;99.90;;;;;;5061306;28;20263;-81
2022/08/17 08:01:41;;;;;;;15.93;14.50;;;19.10;99.90;;;;;;5053117;28;20296;-82
2022/08/17 08:04:27;;;;;;;14.23;12.95;;;19.20;99.90;;;;;;5048560;28;20495;-81
2022/08/17 08:06:58;;;;;;;14.13;12.80;;;19.20;99.90;;;;;;5041111;28;20225;-82
2022/08/17 08:09:35;;;;;;;13.48;12.32;;;19.20;99.90;;;;;;5039672;28;20218;-81
2022/08/17 08:12:24;;;;;;;13.32;12.07;;;19.20;99.90;;;;;;5040468;28;20589;-82
2022/08/17 08:14:55;;;;;;;13.82;12.63;;;19.20;99.90;;;;;;5041216;28;20213;-82
2022/08/17 08:17:25;;;;;;;14.15;12.65;;;19.20;99.90;;;;;;5042642;28;20275;-82
2022/08/17 08:19:52;;;;;;;12.77;11.60;;;19.20;99.90;;;;;;5051206;28;20230;-81
2022/08/17 08:22:26;;;;;;;12.35;11.25;;;19.20;99.90;;;;;;5046775;28;20268;-80
2022/08/17 08:25:06;;;;;;;13.32;12.02;;;19.20;99.90;;;;;;5032730;28;20217;-82
2022/08/17 08:27:43;;;;;;;12.30;11.13;;;19.20;99.90;;;;;;5035630;28;20214;-81
2022/08/17 08:30:14;;;;;;;13.68;12.48;;;19.10;99.90;;;;;;5049761;28;20584;-82
2022/08/17 08:33:12;;;;;;;11.90;10.90;;;19.10;99.90;;;;;;5050984;28;20213;-82
2022/08/17 08:35:45;;;;;;;13.32;12.13;;;19.10;99.90;;;;;;5047951;28;20626;-82
2022/08/17 08:38:21;;;;;;;12.50;11.30;;;19.10;99.90;;;;;;5051960;28;20206;-85
2022/08/17 08:41:01;;;;;;;14.65;11.98;;;19.10;99.90;;;;;;5054620;28;20217;-81
2022/08/17 08:43:38;;;;;;;12.25;11.07;;;19.10;99.90;;;;;;5052542;28;20206;-80
2022/08/17 08:46:15;;;;;;;12.57;11.40;;;19.10;99.90;;;;;;5052539;28;20210;-82
2022/08/17 08:49:09;;;;;;;13.20;10.40;;;19.00;99.90;;;;;;5053482;28;20210;-80
2022/08/17 08:51:45;;;;;;;11.50;10.40;;;19.00;99.90;;;;;;5053421;28;20210;-82
2022/08/17 08:54:33;;;;;;;10.50;9.57;;;19.00;99.90;;;;;;5037015;28;20206;-83
2022/08/17 08:57:09;;;;;;;10.32;9.32;;;19.00;99.90;;;;;;5053111;28;20230;-82
2022/08/17 08:59:45;;;;;;;9.80;9.07;;;19.00;99.90;;;;;;5053257;28;20202;-83
2022/08/17 09:02:24;;;;;;;9.75;8.85;;;19.00;99.90;;;;;;5053397;28;20239;-82
2022/08/17 09:05:02;;;;;;;10.02;9.18;;;19.00;99.90;;;;;;5064664;28;20205;-82
2022/08/17 09:07:39;;;;;;;10.48;9.57;;;19.00;99.90;;;;;;5067385;28;20209;-81
2022/08/17 09:10:12;;;;;;;9.57;8.85;;;19.00;99.90;;;;;;5031301;28;20590;-81
2022/08/17 09:12:48;;;;;;;9.13;8.43;;;19.10;99.90;;;;;;5032427;28;20277;-80
2022/08/17 09:15:21;;;;;;;9.00;8.25;;;19.10;99.90;;;;;;5032965;28;20195;-81
2022/08/17 09:17:55;;;;;;;8.70;8.00;;;19.20;99.90;;;;;;5032422;28;20217;-83
2022/08/17 09:20:26;;;;;;;9.23;8.52;;;19.20;99.90;;;;;;5033191;28;20224;-81
2022/08/17 09:23:00;;;;;;;9.27;8.57;;;19.10;99.90;;;;;;5032393;28;20202;-79
2022/08/17 09:25:31;;;;;;;8.95;8.20;;;19.20;99.90;;;;;;5033015;28;20285;-84
2022/08/17 09:28:02;;;;;;;10.40;9.60;;;19.20;99.90;;;;;;5034189;28;20499;-84
2022/08/17 09:30:41;;;;;;;9.00;8.10;;;19.20;99.90;;;;;;5044650;28;20279;-83
2022/08/17 09:33:09;;;;;;;10.02;9.13;;;19.20;99.90;;;;;;5052251;28;20598;-84
2022/08/17 09:35:42;;;;;;;10.40;9.52;;;19.20;99.90;;;;;;5052558;28;20226;-81
2022/08/17 09:38:21;;;;;;;8.85;8.15;;;19.20;99.90;;;;;;5052724;28;20285;-82
2022/08/17 09:40:52;;;;;;;10.43;9.43;;;19.30;99.90;;;;;;5052389;28;20194;-81
2022/08/17 09:43:27;;;;;;;9.77;8.98;;;19.40;99.90;;;;;;5052622;28;20204;-80
2022/08/17 09:46:00;;;;;;;11.82;10.82;;;19.50;99.90;;;;;;5031970;28;20229;-81
2022/08/17 09:48:35;;;;;;;11.95;10.45;;;19.50;99.90;;;;;;5032979;28;20252;-82
2022/08/17 09:51:07;;;;;;;10.75;9.85;;;19.60;99.90;;;;;;5032797;28;20196;-82
2022/08/17 09:53:37;;;;;;;11.48;10.48;;;19.60;99.90;;;;;;5032296;28;20583;-83
2022/08/17 09:56:22;;;;;;;11.77;10.80;;;19.70;99.90;;;;;;5032277;28;20230;-81
2022/08/17 09:59:15;;;;;;;13.02;11.90;;;19.70;99.90;;;;;;5031677;28;20571;-81
2022/08/17 10:01:51;;;;;;;14.32;13.13;;;19.70;99.90;;;;;;5039731;28;20256;-82
2022/08/17 10:04:36;;;;;;;13.43;12.32;;;19.70;99.90;;;;;;5052366;28;20605;-82
2022/08/17 10:07:11;;;;;;;14.38;13.07;;;19.80;99.90;;;;;;5052156;28;20194;-84
2022/08/17 10:09:51;;;;;;;13.80;12.45;;;19.80;99.90;;;;;;5052390;28;21075;-85
2022/08/17 10:12:33;;;;;;;14.38;13.05;;;19.80;99.90;;;;;;5046682;28;20217;-84
2022/08/17 10:15:12;;;;;;;12.85;11.57;;;19.80;99.90;;;;;;5049153;28;20496;-84
2022/08/17 10:17:49;;;;;;;14.70;13.30;;;19.80;99.90;;;;;;5053070;28;20221;-84
2022/08/17 10:20:20;;;;;;;15.90;14.50;;;19.80;99.90;;;;;;5053777;28;20240;-85
2022/08/17 10:28:40;;;;;;;12.18;11.10;;;19.80;99.90;;;;;;5056243;28;20673;-83
2022/08/17 10:31:10;;;;;;;10.60;9.63;;;19.80;99.90;;;;;;5058949;28;20262;-81
2022/08/17 10:33:50;;;;;;;15.30;13.90;;;19.80;99.90;;;;;;5058118;28;20293;-81
2022/08/17 10:36:25;;;;;;;21.58;19.48;;;19.80;99.90;;;;;;5057786;28;20233;-81
2022/08/17 10:39:04;;;;;;;17.52;15.88;;;19.70;99.90;;;;;;5058253;28;20296;-87
2022/08/17 10:41:38;;;;;;;22.60;20.42;;;19.70;99.90;;;;;;5058625;28;20201;-81
2022/08/17 10:44:12;;;;;;;21.50;19.27;;;19.80;99.90;;;;;;5058054;28;20209;-84
2022/08/17 10:46:58;;;;;;;25.05;22.85;;;19.80;99.90;;;;;;5043886;28;20198;-83
2022/08/17 10:49:32;;;;;;;24.48;22.20;;;19.80;99.90;;;;;;5057963;28;20209;-82
2022/08/17 10:52:01;;;;;;;26.23;23.75;;;19.80;99.90;;;;;;5058561;28;20197;-84
2022/08/17 10:54:46;;;;;;;23.88;21.35;;;19.90;99.90;;;;;;5050614;28;20631;-82
2022/08/17 10:57:39;;;;;;;20.05;18.25;;;19.90;99.90;;;;;;5057567;28;20218;-83
2022/08/17 11:00:54;;;;;;;16.15;14.75;;;19.80;99.90;;;;;;5062348;28;20191;-83
2022/08/17 11:03:24;;;;;;;22.25;20.02;;;19.80;99.90;;;;;;5015019;28;20204;-83
2022/08/17 11:06:00;;;;;;;21.00;19.10;;;19.80;99.90;;;;;;5016651;28;20199;-83
2022/08/17 11:09:02;;;;;;;18.20;16.52;;;19.80;99.90;;;;;;5042316;28;20202;-84
2022/08/17 11:11:50;;;;;;;23.30;21.00;;;19.80;99.90;;;;;;5062979;28;20611;-81
2022/08/17 11:14:33;;;;;;;26.77;24.10;;;19.80;99.90;;;;;;5039529;28;20220;-81
2022/08/17 11:17:15;;;;;;;25.45;22.90;;;19.80;99.90;;;;;;5038580;28;20549;-82
2022/08/17 11:20:06;;;;;;;25.65;23.02;;;19.80;99.90;;;;;;5038202;28;20313;-83
2022/08/17 11:22:58;;;;;;;23.88;21.60;;;19.90;99.90;;;;;;5051576;28;20586;-84
2022/08/17 11:25:34;;;;;;;22.17;20.13;;;19.90;99.90;;;;;;5057837;28;20206;-83
2022/08/17 11:28:07;;;;;;;26.75;24.35;;;19.90;99.90;;;;;;5057953;28;20190;-82
2022/08/17 11:30:47;;;;;;;28.95;26.33;;;19.90;99.90;;;;;;5040853;28;20289;-82
2022/08/17 11:33:51;;;;;;;25.63;23.08;;;20.00;99.90;;;;;;5035002;28;20224;-84
2022/08/17 11:36:30;;;;;;;27.65;24.95;;;20.00;99.90;;;;;;5035167;28;20218;-84
2022/08/17 11:39:04;;;;;;;26.33;23.73;;;20.10;99.90;;;;;;5049594;28;20205;-83
2022/08/17 11:41:40;;;;;;;28.38;25.60;;;20.10;99.90;;;;;;5054149;28;20228;-83
2022/08/17 11:44:29;;;;;;;26.17;23.67;;;20.10;99.90;;;;;;5056775;28;20497;-88
2022/08/17 11:53:02;;;;;;;24.65;22.40;;;20.20;99.90;;;;;;5035752;28;20646;-88
2022/08/17 11:56:05;;;;;;;23.33;21.13;;;20.10;99.90;;;;;;5036281;28;20206;-90
2022/08/17 11:58:37;;;;;;;23.52;21.33;;;20.10;99.90;;;;;;5036362;28;20367;-88
2022/08/17 12:01:04;;;;;;;23.13;20.95;;;20.20;99.90;;;;;;5052476;28;20546;-88
2022/08/17 12:03:47;;;;;;;22.55;20.52;;;20.20;99.90;;;;;;5056398;28;20198;-89
2022/08/17 12:06:36;;;;;;;24.17;22.00;;;20.10;99.90;;;;;;5056229;28;20186;-89
2022/08/17 12:09:12;;;;;;;22.60;20.70;;;20.20;99.90;;;;;;5052374;28;20213;-88
2022/08/17 12:11:46;;;;;;;20.90;19.05;;;20.20;99.90;;;;;;5056540;28;20201;-88
2022/08/17 12:14:21;;;;;;;22.40;20.40;;;20.20;99.90;;;;;;5055562;28;20205;-88
2022/08/17 12:17:02;;;;;;;20.05;18.17;;;20.20;99.90;;;;;;5053159;28;20225;-88
2022/08/17 12:19:32;;;;;;;21.65;19.52;;;20.20;99.90;;;;;;5074493;28;20233;-86
2022/08/17 12:22:05;;;;;;;21.67;19.67;;;20.10;99.90;;;;;;5074826;28;20541;-83
2022/08/17 12:24:46;;;;;;;20.63;18.90;;;20.20;99.90;;;;;;5075807;28;20193;-85
2022/08/17 12:27:22;;;;;;;19.98;18.17;;;20.20;99.90;;;;;;5061836;28;20200;-87
2022/08/17 12:29:50;;;;;;;20.55;18.50;;;20.10;99.90;;;;;;5055912;28;20190;-87
2022/08/17 12:32:19;;;;;;;18.50;16.95;;;20.10;99.90;;;;;;5045797;28;20678;-89
2022/08/17 12:34:48;;;;;;;18.75;17.05;;;20.20;99.90;;;;;;5046828;28;20218;-85
2022/08/17 12:37:19;;;;;;;18.10;16.33;;;20.20;99.90;;;;;;5056363;28;20222;-88
2022/08/17 12:39:55;;;;;;;18.65;16.95;;;20.20;99.90;;;;;;5054895;28;20225;-82
2022/08/17 12:42:28;;;;;;;15.27;13.90;;;20.20;99.90;;;;;;5044962;28;20212;-89
2022/08/17 12:44:55;;;;;;;17.00;15.45;;;20.30;99.90;;;;;;5053782;28;20271;-85
2022/08/17 12:47:22;;;;;;;16.17;14.77;;;20.20;99.90;;;;;;5050797;28;20702;-90
2022/08/17 12:49:51;;;;;;;14.23;12.93;;;20.20;99.90;;;;;;5035248;28;20202;-90
2022/08/17 12:52:22;;;;;;;12.77;11.68;;;20.20;99.90;;;;;;5045012;28;20296;-91
2022/08/17 12:54:53;;;;;;;16.58;15.05;;;20.30;99.90;;;;;;5055711;28;20200;-82
2022/08/17 12:57:22;;;;;;;12.15;11.13;;;20.30;99.90;;;;;;5055487;28;20210;-86
2022/08/17 12:59:57;;;;;;;14.70;13.40;;;20.40;99.90;;;;;;5055244;28;20277;-81
2022/08/17 13:02:32;;;;;;;17.77;16.17;;;20.50;99.90;;;;;;5055585;28;20261;-82
2022/08/17 13:05:01;;;;;;;18.67;16.90;;;20.60;99.90;;;;;;5054635;28;20518;-92
2022/08/17 13:07:32;;;;;;;18.98;17.23;;;20.60;99.90;;;;;;5056323;28;20273;-90
2022/08/17 13:10:05;;;;;;;18.35;16.75;;;20.70;99.90;;;;;;5055640;28;20208;-96
2022/08/17 13:12:35;;;;;;;24.33;22.20;;;20.80;99.90;;;;;;5055844;28;20527;-87
2022/08/17 13:15:04;;;;;;;25.15;22.75;;;20.80;99.90;;;;;;5054784;28;20198;-85
2022/08/17 13:17:35;;;;;;;23.02;20.90;;;20.80;99.90;;;;;;5052914;28;20233;-84
2022/08/17 13:20:04;;;;;;;22.88;20.77;;;20.80;99.90;;;;;;5052704;28;20513;-83
2022/08/17 13:22:32;;;;;;;23.70;21.55;;;20.90;99.90;;;;;;5052054;28;20193;-82
2022/08/17 13:25:07;;;;;;;21.02;19.15;;;20.90;99.90;;;;;;5051926;28;20567;-86